Terminal Aerodrome Forecast
Issued by NWS

Home | Current Version | Previous Version | Text Only | Print | Product List | Glossary On
Versions: 1 2 3 4 5 6 7 8 9 10 11 12 13 14 15 16 17 18 19
066
FTUS46 KSEW 202320
TAFBFI
TAF
KBFI 202320Z 2100/2124 10007KT P6SM VCSH SCT060 OVC100
     FM210200 10007KT P6SM VCSH BKN050 OVC080
     FM211200 12005KT P6SM BKN040
     FM212100 15007KT P6SM VCSH OVC040=

USA.gov is the U.S. government's official web portal to all federal, state and local government web resources and services.